Time;durP1;ratioP1;P1;durP2;ratioP2;P2;SDS_P1;SDS_P2;PMS_P1;PMS_P2;Temp;Humidity;BMP_temperature;BMP_pressure;BME280_temperature;BME280_humidity;BME280_pressure;Samples;Min_cycle;Max_cycle;Signal;HPM_P1;HPM_P2
2023/04/13 00:01:07;;;;;;;;;30.00;25.00;10.20;55.10;;;;;;111226;1243;44961;-59
2023/04/13 00:03:35;;;;;;;;;31.00;30.00;10.20;55.10;;;;;;111243;1240;54859;-56
2023/04/13 00:06:02;;;;;;;;;31.50;27.00;10.30;55.00;;;;;;111257;1240;53834;-60
2023/04/13 00:08:29;;;;;;;;;27.50;24.75;10.30;55.10;;;;;;111278;1243;50901;-57
2023/04/13 00:10:56;;;;;;;;;30.25;25.00;10.40;54.70;;;;;;111293;1241;49655;-60
2023/04/13 00:13:23;;;;;;;;;30.33;26.67;10.40;54.70;;;;;;111325;1244;44472;-57
2023/04/13 00:15:52;;;;;;;;;31.00;27.33;10.40;54.60;;;;;;111338;1241;54109;-57
2023/04/13 00:18:19;;;;;;;;;28.00;26.67;10.40;54.70;;;;;;111263;1244;53665;-56
2023/04/13 00:20:46;;;;;;;;;35.00;29.75;10.40;54.60;;;;;;111297;1244;50891;-56
2023/04/13 00:23:13;;;;;;;;;30.75;27.00;10.40;54.60;;;;;;111190;1240;49155;-56
2023/04/13 00:25:40;;;;;;;;;32.00;30.75;10.40;54.50;;;;;;111310;1239;45124;-56
2023/04/13 00:28:08;;;;;;;;;29.25;26.00;10.40;54.50;;;;;;111188;1243;54391;-57
2023/04/13 00:30:35;;;;;;;;;28.50;25.25;10.40;54.30;;;;;;111348;1239;54153;-56
2023/04/13 00:33:05;;;;;;;;;25.75;24.50;10.40;54.30;;;;;;111176;1244;50332;-56
2023/04/13 00:35:32;;;;;;;;;27.50;24.75;10.40;54.40;;;;;;111209;1244;48929;-57
2023/04/13 00:38:01;;;;;;;;;27.00;26.00;10.30;54.30;;;;;;111307;1241;45359;-56
2023/04/13 00:40:28;;;;;;;;;28.50;25.25;10.30;54.40;;;;;;111210;1244;55235;-56
2023/04/13 00:42:56;;;;;;;;;27.25;24.75;10.20;54.20;;;;;;111190;1242;53988;-58
2023/04/13 00:45:23;;;;;;;;;30.50;26.25;10.10;54.60;;;;;;111191;1241;49894;-56
2023/04/13 00:47:50;;;;;;;;;30.00;26.25;10.00;54.60;;;;;;111182;1244;49842;-55
2023/04/13 00:50:19;;;;;;;;;28.50;25.00;10.00;54.70;;;;;;111196;1244;45176;-55
2023/04/13 00:52:47;;;;;;;;;32.00;25.00;9.90;55.60;;;;;;111215;1243;54202;-56
2023/04/13 00:55:19;;;;;;;;;25.00;23.33;9.80;55.80;;;;;;111183;1244;54432;-55
2023/04/13 00:57:48;;;;;;;;;31.00;26.00;9.80;55.80;;;;;;111204;1244;49470;-56
2023/04/13 01:00:17;;;;;;;;;25.50;24.25;9.80;55.50;;;;;;111273;1243;48889;-57
2023/04/13 01:02:44;;;;;;;;;28.25;26.75;9.70;56.10;;;;;;111268;1241;44678;-55
2023/04/13 01:05:14;;;;;;;;;26.33;24.00;9.70;56.10;;;;;;111251;1244;54813;-56
2023/04/13 01:07:53;;;;;;;;;26.00;22.67;9.60;55.90;;;;;;111255;1244;54477;-57
2023/04/13 01:10:27;;;;;;;;;31.00;24.00;9.60;55.90;;;;;;111181;1244;49229;-55
2023/04/13 01:13:09;;;;;;;;;29.00;26.50;9.60;55.90;;;;;;111147;1243;49893;-56
2023/04/13 01:15:40;;;;;;;;;30.50;25.00;9.60;55.90;;;;;;111304;1241;45192;-56
2023/04/13 01:18:08;;;;;;;;;27.00;24.50;9.60;55.90;;;;;;111314;1240;54926;-57
2023/04/13 01:20:37;;;;;;;;;27.00;24.50;9.50;55.70;;;;;;111252;1245;53712;-57
2023/04/13 01:23:08;;;;;;;;;27.00;24.25;9.60;55.80;;;;;;111247;1243;49066;-56
2023/04/13 01:25:38;;;;;;;;;24.50;22.25;9.50;55.80;;;;;;111203;1240;49669;-57
2023/04/13 01:28:12;;;;;;;;;30.75;25.75;9.50;55.80;;;;;;111273;1241;45012;-56
2023/04/13 01:30:41;;;;;;;;;30.00;27.75;9.60;56.20;;;;;;111231;1239;53949;-57
2023/04/13 01:33:09;;;;;;;;;34.00;24.50;9.50;56.00;;;;;;111323;1241;53746;-56
2023/04/13 01:35:37;;;;;;;;;29.25;26.50;9.50;55.90;;;;;;111211;1244;49556;-56
2023/04/13 01:38:05;;;;;;;;;32.25;29.00;9.50;56.20;;;;;;111243;1241;50433;-56
2023/04/13 01:40:35;;;;;;;;;27.25;22.00;9.50;56.10;;;;;;111171;1241;45279;-55
2023/04/13 01:43:02;;;;;;;;;28.25;27.00;9.50;56.20;;;;;;111309;1240;55945;-55
2023/04/13 01:45:42;;;;;;;;;38.00;30.00;9.50;56.40;;;;;;111168;1242;54740;-57
2023/04/13 01:48:32;;;;;;;;;32.25;30.50;9.40;56.60;;;;;;111182;1243;49199;-57
2023/04/13 01:51:13;;;;;;;;;30.75;27.25;9.40;56.60;;;;;;111231;1243;49797;-57
2023/04/13 01:53:43;;;;;;;;;28.50;25.00;9.30;56.50;;;;;;111361;1240;46253;-57
2023/04/13 01:56:11;;;;;;;;;24.00;23.00;9.30;56.40;;;;;;111352;1244;54263;-55
2023/04/13 01:58:40;;;;;;;;;30.75;26.75;9.30;56.50;;;;;;111380;1243;53387;-56
2023/04/13 02:01:08;;;;;;;;;27.00;25.50;9.30;56.50;;;;;;111337;1240;49838;-56
2023/04/13 02:03:37;;;;;;;;;29.25;24.25;9.30;56.50;;;;;;111207;1244;49447;-55
2023/04/13 02:06:06;;;;;;;;;26.67;24.67;9.20;56.40;;;;;;111179;1243;45819;-55
2023/04/13 02:08:35;;;;;;;;;26.75;23.00;9.30;56.40;;;;;;111253;1241;54705;-57
2023/04/13 02:11:03;;;;;;;;;27.00;25.50;9.30;56.20;;;;;;111164;1244;53400;-55
2023/04/13 02:13:30;;;;;;;;;29.25;26.50;9.30;56.20;;;;;;111158;1247;49026;-56
2023/04/13 02:15:57;;;;;;;;;32.25;27.25;9.20;56.70;;;;;;111205;1241;49695;-56
2023/04/13 02:18:25;;;;;;;;;30.33;28.67;9.20;56.20;;;;;;111175;1241;44697;-56
2023/04/13 02:21:08;;;;;;;;;23.67;22.00;9.20;56.20;;;;;;111156;1240;53947;-58
2023/04/13 02:23:36;;;;;;;;;27.25;25.00;9.20;56.20;;;;;;111148;1241;54657;-55
2023/04/13 02:26:05;;;;;;;;;32.25;28.00;9.10;56.10;;;;;;111212;1243;49285;-56
2023/04/13 02:28:33;;;;;;;;;26.00;24.33;9.10;56.20;;;;;;111310;1241;50166;-57
2023/04/13 02:31:02;;;;;;;;;32.50;31.00;9.10;56.40;;;;;;111193;1241;45496;-56
2023/04/13 02:33:30;;;;;;;;;31.75;29.75;9.00;56.40;;;;;;111331;1242;54455;-56
2023/04/13 02:35:58;;;;;;;;;37.00;32.00;8.90;56.50;;;;;;111349;1240;54119;-57
2023/04/13 02:38:29;;;;;;;;;26.50;25.00;8.80;56.70;;;;;;111313;1243;49713;-57
2023/04/13 02:41:00;;;;;;;;;31.00;26.00;8.80;56.20;;;;;;111279;1243;49682;-57
2023/04/13 02:43:28;;;;;;;;;30.00;25.25;8.80;56.80;;;;;;111251;1241;44785;-57
2023/04/13 02:45:56;;;;;;;;;29.50;24.75;8.70;56.60;;;;;;111276;1241;54980;-56
2023/04/13 02:48:24;;;;;;;;;26.50;25.25;8.70;56.70;;;;;;111533;1241;54705;-57
2023/04/13 02:50:53;;;;;;;;;31.00;27.25;8.60;56.90;;;;;;111284;1241;49283;-56
2023/04/13 02:53:20;;;;;;;;;32.33;27.33;8.60;57.10;;;;;;111175;1242;49326;-56
2023/04/13 02:55:52;;;;;;;;;27.00;25.33;8.60;57.30;;;;;;111200;1240;45211;-57
2023/04/13 02:58:20;;;;;;;;;30.75;28.00;8.60;57.40;;;;;;111190;1244;54879;-57
2023/04/13 03:00:47;;;;;;;;;33.75;30.25;8.60;57.50;;;;;;111268;1241;53683;-57
2023/04/13 03:03:15;;;;;;;;;29.00;25.00;8.50;57.50;;;;;;111274;1244;49210;-56
2023/04/13 03:05:42;;;;;;;;;36.50;31.75;8.50;57.50;;;;;;111261;1244;49221;-56
2023/04/13 03:08:09;;;;;;;;;28.00;25.33;8.50;57.30;;;;;;111268;1242;44872;-56
2023/04/13 03:10:36;;;;;;;;;24.00;22.75;8.50;57.00;;;;;;111211;1242;54218;-56
2023/04/13 03:13:03;;;;;;;;;32.50;30.00;8.50;56.90;;;;;;111253;1244;53402;-57
2023/04/13 03:15:31;;;;;;;;;27.67;25.00;8.50;56.80;;;;;;111411;1244;49454;-56
2023/04/13 03:17:58;;;;;;;;;23.50;22.25;8.40;56.80;;;;;;111162;1243;49917;-57
2023/04/13 03:20:27;;;;;;;;;28.75;26.25;8.40;56.70;;;;;;111176;1242;44590;-56
2023/04/13 03:22:56;;;;;;;;;26.75;24.75;8.30;56.60;;;;;;111198;1245;54474;-57
2023/04/13 03:25:23;;;;;;;;;27.00;25.00;8.20;56.80;;;;;;111339;1241;53458;-55
2023/04/13 03:27:50;;;;;;;;;28.25;26.25;8.20;56.90;;;;;;111220;1244;49529;-56
2023/04/13 03:30:17;;;;;;;;;33.50;30.75;8.20;57.10;;;;;;111173;1243;52089;-57
2023/04/13 03:32:44;;;;;;;;;32.00;28.50;8.20;57.20;;;;;;111186;1241;45590;-55
2023/04/13 03:35:11;;;;;;;;;28.50;24.25;8.10;57.30;;;;;;111284;1243;54286;-56
2023/04/13 03:37:42;;;;;;;;;28.25;26.00;8.10;57.50;;;;;;111346;1244;54473;-56
2023/04/13 03:40:10;;;;;;;;;27.67;25.33;8.10;57.50;;;;;;111243;1243;48846;-56
2023/04/13 03:42:37;;;;;;;;;29.50;25.50;8.20;57.40;;;;;;111220;1243;48880;-55
2023/04/13 03:45:05;;;;;;;;;32.25;28.75;8.20;57.60;;;;;;110992;1240;45379;-56
2023/04/13 03:47:32;;;;;;;;;45.00;38.50;8.30;57.50;;;;;;111233;1241;54822;-57
2023/04/13 03:49:59;;;;;;;;;39.25;34.75;8.30;57.60;;;;;;111433;1244;53341;-57
2023/04/13 03:52:26;;;;;;;;;35.75;34.00;8.30;57.70;;;;;;111221;1241;49935;-63
2023/04/13 03:54:53;;;;;;;;;35.25;30.00;8.30;57.70;;;;;;111031;1241;49447;-58
2023/04/13 03:57:21;;;;;;;;;38.67;33.33;8.30;57.90;;;;;;111344;1244;45229;-57
2023/04/13 03:59:48;;;;;;;;;38.00;33.00;8.40;57.80;;;;;;111195;1242;55077;-57
2023/04/13 04:02:15;;;;;;;;;29.67;26.33;8.50;57.60;;;;;;111216;1241;53790;-54
2023/04/13 04:04:42;;;;;;;;;29.50;26.00;8.50;57.30;;;;;;111054;1244;49893;-58
2023/04/13 04:07:09;;;;;;;;;30.25;27.00;8.50;56.80;;;;;;111173;1240;49341;-56
2023/04/13 04:09:36;;;;;;;;;34.33;28.00;8.50;57.20;;;;;;111201;1241;45191;-56
2023/04/13 04:12:04;;;;;;;;;31.00;27.67;8.60;57.20;;;;;;111181;1244;55113;-57
2023/04/13 04:14:31;;;;;;;;;34.75;31.25;8.70;57.10;;;;;;111224;1244;53898;-55
2023/04/13 04:16:57;;;;;;;;;35.00;29.00;8.70;57.10;;;;;;111379;1241;49850;-55
2023/04/13 04:19:24;;;;;;;;;33.33;30.00;8.80;57.00;;;;;;111219;1243;49742;-55
2023/04/13 04:21:51;;;;;;;;;31.00;29.75;8.90;56.90;;;;;;111344;1241;44365;-55
2023/04/13 04:24:26;;;;;;;;;37.00;31.00;8.90;57.00;;;;;;111266;1244;54409;-55
2023/04/13 04:26:54;;;;;;;;;35.50;32.00;8.90;57.00;;;;;;111226;1241;53954;-55
2023/04/13 04:29:21;;;;;;;;;38.50;34.00;8.90;56.90;;;;;;111201;1243;49451;-55
2023/04/13 04:31:52;;;;;;;;;39.50;31.75;8.90;56.90;;;;;;111198;1243;49907;-55
2023/04/13 04:34:18;;;;;;;;;32.67;29.00;9.00;56.90;;;;;;111233;1241;45525;-55
2023/04/13 04:36:49;;;;;;;;;34.50;30.50;9.00;56.90;;;;;;111401;1244;55505;-54
2023/04/13 04:39:25;;;;;;;;;36.25;34.00;9.10;56.80;;;;;;111234;1240;53549;-55
2023/04/13 04:41:53;;;;;;;;;31.33;30.33;9.20;56.70;;;;;;111230;1243;48857;-54
2023/04/13 04:44:23;;;;;;;;;35.25;32.00;9.10;56.70;;;;;;111300;1243;49249;-55
2023/04/13 04:46:51;;;;;;;;;33.00;27.50;9.20;57.00;;;;;;111334;1243;46377;-56
2023/04/13 04:49:20;;;;;;;;;30.00;28.25;9.30;56.30;;;;;;111246;1244;54279;-57
2023/04/13 04:51:48;;;;;;;;;32.75;31.50;9.50;55.90;;;;;;111192;1241;54526;-57
2023/04/13 04:54:18;;;;;;;;;37.25;33.50;9.50;55.40;;;;;;111272;1243;48793;-57
2023/04/13 04:56:47;;;;;;;;;32.67;29.33;9.60;55.10;;;;;;111229;1244;49722;-57
2023/04/13 04:59:14;;;;;;;;;28.75;26.75;9.70;55.00;;;;;;111292;1247;44457;-58
2023/04/13 05:01:41;;;;;;;;;32.67;29.00;9.80;54.70;;;;;;111196;1241;55429;-48
2023/04/13 05:04:09;;;;;;;;;26.75;24.00;9.80;54.70;;;;;;111111;1239;54219;-51
2023/04/13 05:06:39;;;;;;;;;28.67;25.33;9.30;55.70;;;;;;111310;1244;49719;-47
2023/04/13 05:09:07;;;;;;;;;31.75;30.00;8.80;56.60;;;;;;111275;1244;49284;-57
2023/04/13 05:11:35;;;;;;;;;26.75;23.00;8.80;56.90;;;;;;111266;1241;45282;-58
2023/04/13 05:14:02;;;;;;;;;28.00;26.50;9.10;56.80;;;;;;111280;1242;55602;-56
2023/04/13 05:16:30;;;;;;;;;33.75;27.00;9.50;56.10;;;;;;111446;1241;53766;-58
2023/04/13 05:18:57;;;;;;;;;31.75;30.50;9.80;55.50;;;;;;111291;1244;50539;-57
2023/04/13 05:21:25;;;;;;;;;37.00;31.00;9.90;55.00;;;;;;111292;1241;50150;-56
2023/04/13 05:23:52;;;;;;;;;34.25;31.00;10.10;54.40;;;;;;111186;1243;44383;-57
2023/04/13 05:26:19;;;;;;;;;37.00;32.75;10.30;54.20;;;;;;111169;1243;55786;-57
2023/04/13 05:28:46;;;;;;;;;33.00;29.75;10.50;54.00;;;;;;111133;1243;53820;-56
2023/04/13 05:31:14;;;;;;;;;36.00;32.00;10.70;53.10;;;;;;111145;1244;49710;-56
2023/04/13 05:33:41;;;;;;;;;32.00;30.00;10.80;53.30;;;;;;111171;1241;49031;-56
2023/04/13 05:36:08;;;;;;;;;31.75;29.25;10.90;53.30;;;;;;111214;1239;45569;-56
2023/04/13 05:38:35;;;;;;;;;29.67;27.00;10.90;53.40;;;;;;111264;1243;54866;-57
2023/04/13 05:41:02;;;;;;;;;37.75;33.25;11.10;53.20;;;;;;111285;1244;54173;-57
2023/04/13 05:43:29;;;;;;;;;31.00;28.25;11.20;52.60;;;;;;111228;1243;50394;-54
2023/04/13 05:45:56;;;;;;;;;31.25;29.00;11.20;52.70;;;;;;111352;1241;48940;-58
2023/04/13 05:48:24;;;;;;;;;33.00;30.75;11.30;52.00;;;;;;111418;1244;44932;-57
2023/04/13 05:51:00;;;;;;;;;30.00;26.67;11.20;52.00;;;;;;111201;1244;54329;-57
2023/04/13 05:53:27;;;;;;;;;28.50;25.50;11.20;52.10;;;;;;111228;1242;53560;-57
2023/04/13 05:55:54;;;;;;;;;27.00;23.67;11.40;52.50;;;;;;111266;1243;48883;-57
2023/04/13 05:58:21;;;;;;;;;35.50;27.75;11.50;52.10;;;;;;111328;1244;49860;-57
2023/04/13 06:00:48;;;;;;;;;31.67;27.33;11.60;51.70;;;;;;111240;1240;45214;-58
2023/04/13 06:03:15;;;;;;;;;33.50;30.00;11.60;51.70;;;;;;111185;1243;54976;-57
2023/04/13 06:05:42;;;;;;;;;39.75;31.75;11.70;51.70;;;;;;111324;1244;54301;-56
2023/04/13 06:08:10;;;;;;;;;31.50;26.50;11.90;51.60;;;;;;111521;1244;49575;-56
2023/04/13 06:10:38;;;;;;;;;29.00;27.50;12.00;51.10;;;;;;111335;1244;49680;-57
2023/04/13 06:13:05;;;;;;;;;36.50;32.25;12.10;51.10;;;;;;111181;1240;44775;-57
2023/04/13 06:15:35;;;;;;;;;29.00;28.00;12.30;50.60;;;;;;111231;1240;54099;-57
2023/04/13 06:18:01;;;;;;;;;31.00;27.25;12.40;50.30;;;;;;111178;1240;54678;-58
2023/04/13 06:20:30;;;;;;;;;34.00;30.00;12.40;50.00;;;;;;111262;1243;49592;-57
2023/04/13 06:22:57;;;;;;;;;30.00;28.00;12.60;49.70;;;;;;111223;1244;49343;-56
2023/04/13 06:25:24;;;;;;;;;30.50;27.00;12.60;49.80;;;;;;111137;1240;135092;-57
2023/04/13 06:27:53;;;;;;;;;28.25;27.00;12.60;49.40;;;;;;111227;1243;55377;-57
2023/04/13 06:30:20;;;;;;;;;28.00;25.75;12.70;49.40;;;;;;111183;1244;53695;-56
2023/04/13 06:32:47;;;;;;;;;27.00;24.00;12.70;49.50;;;;;;111360;1243;49405;-56
2023/04/13 06:35:16;;;;;;;;;31.00;28.00;12.80;49.20;;;;;;111249;1243;49310;-56
2023/04/13 06:37:43;;;;;;;;;32.00;25.67;12.90;49.30;;;;;;111205;1239;45220;-56
2023/04/13 06:40:14;;;;;;;;;31.33;26.67;13.00;48.80;;;;;;111238;1244;54759;-56
2023/04/13 06:42:42;;;;;;;;;29.75;26.75;13.00;48.70;;;;;;111233;1242;54612;-57
2023/04/13 06:45:10;;;;;;;;;29.50;23.50;13.10;48.80;;;;;;111251;1244;49023;-57
2023/04/13 06:47:41;;;;;;;;;29.75;27.25;13.00;49.30;;;;;;111364;1244;49736;-57
2023/04/13 06:50:12;;;;;;;;;37.75;31.25;13.10;49.50;;;;;;111186;1243;45443;-57
2023/04/13 06:52:41;;;;;;;;;33.25;29.75;13.20;49.40;;;;;;111234;1244;56264;-57
2023/04/13 06:55:08;;;;;;;;;30.75;28.00;13.10;49.40;;;;;;111404;1239;54252;-56
2023/04/13 06:57:35;;;;;;;;;31.00;30.00;13.20;49.80;;;;;;111422;1239;49349;-56
2023/04/13 07:00:05;;;;;;;;;26.50;24.00;13.10;49.60;;;;;;111321;1243;49067;-57
2023/04/13 07:02:32;;;;;;;;;32.00;28.00;13.10;49.50;;;;;;111238;1241;44416;-57
2023/04/13 07:04:59;;;;;;;;;33.33;30.00;13.00;50.00;;;;;;111233;1241;54549;-57
2023/04/13 07:07:26;;;;;;;;;30.33;27.33;13.00;50.30;;;;;;111295;1244;54063;-56
2023/04/13 07:09:52;;;;;;;;;33.67;31.00;12.80;50.40;;;;;;111207;1244;49834;-57
2023/04/13 07:12:19;;;;;;;;;28.67;26.33;12.80;51.00;;;;;;111195;1244;49815;-56
2023/04/13 07:14:46;;;;;;;;;29.50;24.50;12.90;51.00;;;;;;111245;1243;44464;-56
2023/04/13 07:17:13;;;;;;;;;33.00;29.00;12.90;51.00;;;;;;111311;1242;55530;-57
2023/04/13 07:19:48;;;;;;;;;29.50;26.25;13.00;50.80;;;;;;111255;1243;53870;-57
2023/04/13 07:22:16;;;;;;;;;26.00;24.00;13.00;50.60;;;;;;111171;1243;49745;-56
2023/04/13 07:24:43;;;;;;;;;29.75;26.75;12.90;50.70;;;;;;111182;1243;48796;-57
2023/04/13 07:27:10;;;;;;;;;33.75;31.00;13.00;51.10;;;;;;111190;1244;45279;-57
2023/04/13 07:29:37;;;;;;;;;34.50;27.50;13.20;50.90;;;;;;111182;1243;55340;-56
2023/04/13 07:32:07;;;;;;;;;33.00;27.75;13.20;50.60;;;;;;111195;1242;54862;-55
2023/04/13 07:34:34;;;;;;;;;32.75;29.00;13.30;50.70;;;;;;111261;1243;48970;-56
2023/04/13 07:37:01;;;;;;;;;33.00;28.25;13.50;50.50;;;;;;111268;1240;49367;-56
2023/04/13 07:39:28;;;;;;;;;40.33;35.00;13.60;50.80;;;;;;111225;1241;45659;-56
2023/04/13 07:41:56;;;;;;;;;42.00;34.75;13.80;50.40;;;;;;111193;1243;54511;-56
2023/04/13 07:44:23;;;;;;;;;35.25;29.00;13.80;49.80;;;;;;111213;1243;54402;-56
2023/04/13 07:46:50;;;;;;;;;34.50;30.25;13.90;49.60;;;;;;111270;1242;50097;-55
2023/04/13 07:49:17;;;;;;;;;35.75;31.00;13.90;49.90;;;;;;111256;1244;49754;-56
2023/04/13 07:51:44;;;;;;;;;37.50;33.00;13.80;49.10;;;;;;111329;1242;45174;-56
2023/04/13 07:54:11;;;;;;;;;31.00;30.00;13.70;49.40;;;;;;111435;1243;54243;-56
2023/04/13 07:56:38;;;;;;;;;28.75;23.50;13.70;49.80;;;;;;111316;1243;54365;-57
2023/04/13 07:59:05;;;;;;;;;30.25;28.75;13.80;49.20;;;;;;111217;1241;50382;-57
2023/04/13 08:01:33;;;;;;;;;33.50;28.50;13.90;49.10;;;;;;111382;1239;49989;-57
2023/04/13 08:04:00;;;;;;;;;29.00;24.75;14.00;48.90;;;;;;111252;1243;45895;-56
2023/04/13 08:06:27;;;;;;;;;29.00;24.25;14.00;48.90;;;;;;111272;1241;55763;-59
2023/04/13 08:08:56;;;;;;;;;31.50;27.50;13.90;49.00;;;;;;111227;1242;53930;-58
2023/04/13 08:11:23;;;;;;;;;31.75;29.00;14.00;49.70;;;;;;111255;1239;49653;-58
2023/04/13 08:13:50;;;;;;;;;33.00;28.25;14.10;49.20;;;;;;111311;1244;49223;-57
2023/04/13 08:16:17;;;;;;;;;33.25;30.75;14.10;49.70;;;;;;111244;1244;44746;-56
2023/04/13 08:18:44;;;;;;;;;30.67;29.33;14.20;49.00;;;;;;111245;1244;54464;-57
2023/04/13 08:21:11;;;;;;;;;32.25;29.00;14.20;49.10;;;;;;111126;1244;54109;-56
2023/04/13 08:23:40;;;;;;;;;35.00;30.50;14.20;49.10;;;;;;111371;1244;49934;-57
2023/04/13 08:26:15;;;;;;;;;29.50;25.75;14.40;49.00;;;;;;111302;1243;48971;-56
2023/04/13 08:28:42;;;;;;;;;32.00;28.75;14.30;48.70;;;;;;111398;1243;45203;-56
2023/04/13 08:31:09;;;;;;;;;32.00;28.67;14.20;48.80;;;;;;111226;1241;54476;-57
2023/04/13 08:33:37;;;;;;;;;29.67;26.67;14.10;49.00;;;;;;111179;1244;54393;-57
2023/04/13 08:36:05;;;;;;;;;32.00;27.00;14.10;48.90;;;;;;111195;1240;50092;-57
2023/04/13 08:38:32;;;;;;;;;30.25;28.00;14.20;48.90;;;;;;111242;1241;50398;-57
2023/04/13 08:41:02;;;;;;;;;33.25;28.50;14.20;48.80;;;;;;111196;1243;45296;-57
2023/04/13 08:43:31;;;;;;;;;30.75;27.50;14.30;48.90;;;;;;111236;1240;54748;-56
2023/04/13 08:45:58;;;;;;;;;36.00;31.00;14.30;48.70;;;;;;111261;1241;54135;-56
2023/04/13 08:48:26;;;;;;;;;31.33;30.33;14.40;48.90;;;;;;111306;1243;49075;-56
2023/04/13 08:50:57;;;;;;;;;29.00;27.25;14.50;48.60;;;;;;111161;1240;50424;-56
2023/04/13 08:53:24;;;;;;;;;32.50;30.50;14.50;48.20;;;;;;111289;1240;44855;-56
2023/04/13 08:55:51;;;;;;;;;32.50;29.25;14.60;48.60;;;;;;111207;1239;54044;-56
2023/04/13 08:58:21;;;;;;;;;30.00;28.50;14.60;48.60;;;;;;111158;1244;54759;-57
2023/04/13 09:00:49;;;;;;;;;28.75;27.25;14.70;48.70;;;;;;111274;1241;49834;-57
2023/04/13 09:03:22;;;;;;;;;32.50;29.50;14.80;48.30;;;;;;111482;1241;49678;-56
2023/04/13 09:05:58;;;;;;;;;32.00;29.67;14.90;48.30;;;;;;111233;1244;44766;-57
2023/04/13 09:08:25;;;;;;;;;29.33;28.00;15.00;48.30;;;;;;111365;1240;54886;-57
2023/04/13 09:10:55;;;;;;;;;30.25;27.25;14.90;47.90;;;;;;111194;1241;53610;-57
2023/04/13 09:13:22;;;;;;;;;38.50;30.25;15.00;48.30;;;;;;111270;1241;49601;-57
2023/04/13 09:15:50;;;;;;;;;32.33;28.67;14.90;48.20;;;;;;111218;1243;49738;-57
2023/04/13 09:18:17;;;;;;;;;30.75;28.00;14.90;48.20;;;;;;111190;1241;45716;-56
2023/04/13 09:20:58;;;;;;;;;33.25;25.00;14.90;47.90;;;;;;111294;1240;54707;-57
2023/04/13 09:23:25;;;;;;;;;32.00;27.00;15.00;48.00;;;;;;111288;1242;53662;-57
2023/04/13 09:26:06;;;;;;;;;29.00;25.00;15.10;48.40;;;;;;111319;1241;50566;-55
2023/04/13 09:28:33;;;;;;;;;28.75;27.75;15.30;48.10;;;;;;111392;1240;49198;-57
2023/04/13 09:31:04;;;;;;;;;31.50;29.00;15.30;47.80;;;;;;111237;1240;46181;-57
2023/04/13 09:33:34;;;;;;;;;27.00;25.00;15.10;47.80;;;;;;111165;1244;53965;-56
2023/04/13 09:36:09;;;;;;;;;26.50;24.50;15.10;47.70;;;;;;111230;1240;55035;-56
2023/04/13 09:38:36;;;;;;;;;28.00;26.67;15.10;48.10;;;;;;111252;1244;50689;-58
2023/04/13 09:41:03;;;;;;;;;30.50;27.00;15.10;47.70;;;;;;111205;1244;49530;-57
2023/04/13 09:43:37;;;;;;;;;29.75;28.25;15.00;48.20;;;;;;111345;1243;45439;-56
2023/04/13 09:46:11;;;;;;;;;28.00;26.67;15.10;47.90;;;;;;111282;1241;54026;-57
2023/04/13 09:48:38;;;;;;;;;30.00;27.25;14.90;47.90;;;;;;111228;1244;53380;-57
2023/04/13 09:51:07;;;;;;;;;36.50;30.75;14.90;48.00;;;;;;111205;1240;50187;-56
2023/04/13 09:53:42;;;;;;;;;25.50;22.75;14.90;47.70;;;;;;111214;1243;49053;-57
2023/04/13 09:56:09;;;;;;;;;27.00;24.75;15.00;47.90;;;;;;111373;1243;44425;-57
2023/04/13 09:58:44;;;;;;;;;28.00;25.00;15.00;47.80;;;;;;111291;1240;54434;-56
2023/04/13 10:01:14;;;;;;;;;30.33;24.67;15.10;47.30;;;;;;111226;1241;53812;-56
2023/04/13 10:03:41;;;;;;;;;25.33;22.00;15.20;47.50;;;;;;111217;1240;50771;-57
2023/04/13 10:06:08;;;;;;;;;28.50;25.50;15.30;46.80;;;;;;111199;1241;49097;-58
2023/04/13 10:08:40;;;;;;;;;22.50;20.50;15.40;46.70;;;;;;111231;1241;45577;-56
2023/04/13 10:11:11;;;;;;;;;25.75;20.75;15.40;46.40;;;;;;111260;1244;54960;-57
2023/04/13 10:13:48;;;;;;;;;25.00;22.00;15.50;46.10;;;;;;111388;1240;53739;-57
2023/04/13 10:16:15;;;;;;;;;24.67;22.00;15.70;45.90;;;;;;111434;1244;50757;-57
2023/04/13 10:19:00;;;;;;;;;23.75;21.50;15.90;45.00;;;;;;111239;1240;49031;-57
2023/04/13 10:21:38;;;;;;;;;23.00;21.75;16.10;45.00;;;;;;111245;1243;45807;-56
2023/04/13 10:24:11;;;;;;;;;29.33;25.00;16.20;45.00;;;;;;111318;1241;54572;-56
2023/04/13 10:26:39;;;;;;;;;28.50;24.50;16.20;44.20;;;;;;111763;1240;53581;-57
2023/04/13 10:29:07;;;;;;;;;24.00;22.00;16.10;44.20;;;;;;111279;1241;49639;-56
2023/04/13 10:31:42;;;;;;;;;23.75;22.25;15.90;44.90;;;;;;111211;1241;49876;-56
2023/04/13 10:34:09;;;;;;;;;34.25;23.50;15.80;44.80;;;;;;111179;1244;44523;-55
2023/04/13 10:36:38;;;;;;;;;28.00;23.33;15.90;45.40;;;;;;111252;1243;55610;-56
2023/04/13 10:39:07;;;;;;;;;26.00;22.00;16.00;44.40;;;;;;111364;1244;53923;-55
2023/04/13 10:41:35;;;;;;;;;26.25;20.50;16.20;44.20;;;;;;111161;1244;49281;-56
2023/04/13 10:44:05;;;;;;;;;22.50;19.75;16.40;43.30;;;;;;111422;1240;49665;-57
2023/04/13 10:46:33;;;;;;;;;22.50;21.00;16.50;42.90;;;;;;111319;1241;45364;-56
2023/04/13 10:49:02;;;;;;;;;26.75;23.75;16.70;42.40;;;;;;111260;1244;54624;-57
2023/04/13 10:51:39;;;;;;;;;26.33;23.00;16.90;42.60;;;;;;111324;1241;54002;-56
2023/04/13 10:54:08;;;;;;;;;27.00;24.50;16.90;42.60;;;;;;111170;1243;49279;-56
2023/04/13 10:56:36;;;;;;;;;29.50;25.00;16.90;42.40;;;;;;111202;1241;49428;-56
2023/04/13 10:59:03;;;;;;;;;22.25;19.25;17.00;43.00;;;;;;111186;1241;44928;-56
2023/04/13 11:01:30;;;;;;;;;22.50;19.50;17.10;42.20;;;;;;111187;1243;54641;-56
2023/04/13 11:04:05;;;;;;;;;22.50;21.00;17.10;42.40;;;;;;111235;1243;53587;-55
2023/04/13 11:06:36;;;;;;;;;22.00;20.75;17.20;42.30;;;;;;111270;1243;50493;-56
2023/04/13 11:09:10;;;;;;;;;26.00;22.50;17.20;42.40;;;;;;111197;1241;49395;-56
2023/04/13 11:11:38;;;;;;;;;24.50;21.00;17.30;42.30;;;;;;111180;1244;45405;-56
2023/04/13 11:14:05;;;;;;;;;26.50;24.75;17.50;41.90;;;;;;111194;1243;54796;-55
2023/04/13 11:16:42;;;;;;;;;22.50;19.50;17.60;41.10;;;;;;111181;1243;53720;-56
2023/04/13 11:19:09;;;;;;;;;24.75;23.50;17.70;41.10;;;;;;111188;1243;49574;-56
2023/04/13 11:21:36;;;;;;;;;25.25;23.50;17.80;41.50;;;;;;111201;1244;49789;-56
2023/04/13 11:24:04;;;;;;;;;27.25;22.25;17.80;41.50;;;;;;111262;1241;45172;-56
2023/04/13 11:26:35;;;;;;;;;25.75;23.25;17.70;41.20;;;;;;111390;1239;54595;-56
2023/04/13 11:29:03;;;;;;;;;29.67;26.67;17.80;42.10;;;;;;111187;1243;55011;-57
2023/04/13 11:31:39;;;;;;;;;26.50;22.50;17.90;41.90;;;;;;111218;1245;49082;-58
2023/04/13 11:34:08;;;;;;;;;27.00;24.00;18.00;40.50;;;;;;111260;1244;49038;-57
2023/04/13 11:36:37;;;;;;;;;26.00;23.00;17.90;40.30;;;;;;111254;1243;45099;-56
2023/04/13 11:39:08;;;;;;;;;26.50;25.00;17.80;40.70;;;;;;111257;1239;54449;-57
2023/04/13 11:41:40;;;;;;;;;26.25;24.75;17.60;40.70;;;;;;111267;1241;53712;-57
2023/04/13 11:44:07;;;;;;;;;23.00;22.00;17.50;40.70;;;;;;111282;1243;49337;-57
2023/04/13 11:46:34;;;;;;;;;24.25;23.00;17.40;40.70;;;;;;111218;1244;49893;-56
2023/04/13 11:49:01;;;;;;;;;21.25;19.50;17.40;40.70;;;;;;111338;1243;44906;-56
2023/04/13 11:51:29;;;;;;;;;21.25;18.00;17.50;40.50;;;;;;111201;1240;54853;-56
2023/04/13 11:53:57;;;;;;;;;31.00;24.25;17.50;40.90;;;;;;111301;1243;54002;-55
2023/04/13 11:56:24;;;;;;;;;20.50;19.00;17.50;41.50;;;;;;111424;1240;48999;-56
2023/04/13 11:58:52;;;;;;;;;24.33;19.67;17.60;40.60;;;;;;111173;1243;49805;-57
2023/04/13 12:01:22;;;;;;;;;25.00;21.00;17.70;41.40;;;;;;111206;1239;45716;-55
2023/04/13 12:03:49;;;;;;;;;23.00;19.75;17.90;41.50;;;;;;111337;1244;55323;-56
2023/04/13 12:06:16;;;;;;;;;23.25;21.75;18.10;41.90;;;;;;111240;1244;54689;-56
2023/04/13 12:08:43;;;;;;;;;25.25;24.00;18.30;40.30;;;;;;111167;1239;49464;-56
2023/04/13 12:11:11;;;;;;;;;22.00;20.00;18.20;40.80;;;;;;111258;1240;49639;-56
2023/04/13 12:13:43;;;;;;;;;18.33;17.00;18.20;40.70;;;;;;111182;1241;45866;-56
2023/04/13 12:16:13;;;;;;;;;20.50;19.25;18.10;41.00;;;;;;111239;1243;55540;-56
2023/04/13 12:18:44;;;;;;;;;20.50;19.25;18.00;40.40;;;;;;111226;1240;53511;-56
2023/04/13 12:21:15;;;;;;;;;27.33;20.33;17.90;40.30;;;;;;111256;1241;49165;-54
2023/04/13 12:23:52;;;;;;;;;20.00;18.75;17.80;40.50;;;;;;111213;1242;49594;-56
2023/04/13 12:26:20;;;;;;;;;21.50;20.50;17.60;40.60;;;;;;111322;1241;44765;-56
2023/04/13 12:28:47;;;;;;;;;20.00;18.50;17.50;40.90;;;;;;111366;1241;55915;-55